21:10
Airports
History
Links
Donate
Help keep this website running!
PayPal
Bitcoin
This page is community maintained. The information is intended for PC simulator navigation or reference.
Always use approved charts for navigation.
CYMY
EAR FALLS
EAR FALLS (CYMY)
Ontario, Canada
(U)
Lat/Lng:50° 43' 3.51" N / 93° 23' 0.5" W
50.717641 / -93.383472
Elevation:1269'ft / 387mMSL
ID / ICAO:CYMY
Runways:1
Longest:(10-28) 1,207.0m / 3,960ft Asphalt
Distance To
Airport ID:
Airport Radio Frequencies
CTAF/UNICOM: 122.8
Nearby VORs <50NM
Nearby NDBs
Nearby WeatherUpdated 08-20-17 21:00 GMT
Nearby weather at CYRL, RED LAKE located 30.0 nautical miles from CYMY
Altimeter: 29.85
Visibility: 15.0 statute miles
Wind: 18 knots (280°)
Temp: 23°c 73°f
Humidity: 28.9%

METAR: CYRL 202100Z 28018G24KT 270V330 15SM SCT074 SCT220 23/04 A2985 RMK CU3CI1 SLP108 DENSITY ALT 2600FT

(Powered by phpweather)
Runway 10 / 28
Dimensions:1207 x 30.5m 3960' x 100'ft
Surface:Asphalt
Edge Lights:Low intensity
Runway 10 [A]Runway 28 [B]
Heading:100°TH 280°TH
Lat:
Lng:
50° 43' 7.01"N
93° 23' 31"W
50° 43' 0"N
93° 22' 30"W
User Notes and Comments
Google Map
Nearby Airports
(U) RED LAKE 30.0 NM
CYRL (WX) NW 323°
(U) DRYDEN RGNL 67.4 NM
CYHD SSE 155°
(U) SIOUX LOOKOUT 77.3 NM
CYXL (WX) ESE 122°
(U) KENORA 77.4 NM
CYQK (WX) SSW 213°
(U) IGNACE MUNI 115.6 NM
CZUC SE 140°
(U) LAC DU BONNET 119.0 NM
CYAX WSW 255°
4 Northwest Angle 120.5 NM
72Y SW 218°
VFR Chart
Flight Planning at SkyVector.com